Time;durP1;ratioP1;P1;durP2;ratioP2;P2;SDS_P1;SDS_P2;PMS_P1;PMS_P2;Temp;Humidity;BMP_temperature;BMP_pressure;BME280_temperature;BME280_humidity;BME280_pressure;Samples;Min_cycle;Max_cycle;Signal;HPM_P1;HPM_P2
2023/06/14 00:02:24;;;;;;;9.18;5.13;;;;;;;16.40;100.00;92818.78;5108172;28;20100;-74
2023/06/14 00:04:52;;;;;;;8.40;5.22;;;;;;;16.37;100.00;92814.88;5107706;28;20500;-74
2023/06/14 00:07:19;;;;;;;8.32;4.50;;;;;;;16.27;100.00;92807.88;5107446;28;20051;-74
2023/06/14 00:09:46;;;;;;;7.85;4.60;;;;;;;16.30;100.00;92809.16;5107753;28;20431;-74
2023/06/14 00:12:12;;;;;;;9.07;5.40;;;;;;;16.29;100.00;92816.16;5107795;28;20501;-74
2023/06/14 00:14:39;;;;;;;6.28;4.50;;;;;;;16.24;100.00;92810.94;5106874;28;20194;-74
2023/06/14 00:17:07;;;;;;;7.53;4.90;;;;;;;16.17;100.00;92797.47;5107698;28;20059;-74
2023/06/14 00:19:35;;;;;;;6.90;4.40;;;;;;;16.24;100.00;92810.19;5107413;28;20130;-74
2023/06/14 00:22:03;;;;;;;10.00;4.75;;;;;;;16.23;100.00;92813.78;5093506;28;20042;-74
2023/06/14 00:24:30;;;;;;;8.02;5.03;;;;;;;16.19;100.00;92797.22;5107367;28;20771;-73
2023/06/14 00:26:56;;;;;;;8.15;5.05;;;;;;;16.18;100.00;92801.59;5107724;28;20039;-74
2023/06/14 00:29:23;;;;;;;8.88;4.97;;;;;;;16.18;100.00;92799.00;5107226;28;20047;-74
2023/06/14 00:31:50;;;;;;;6.57;4.53;;;;;;;16.17;100.00;92800.06;5107201;28;20073;-74
2023/06/14 00:34:17;;;;;;;7.70;4.75;;;;;;;16.18;100.00;92793.84;5107735;28;20048;-74
2023/06/14 00:36:43;;;;;;;8.05;5.03;;;;;;;16.18;100.00;92788.66;5106582;28;20040;-73
2023/06/14 00:39:12;;;;;;;8.90;4.82;;;;;;;16.17;100.00;92792.28;5096074;28;20048;-74
2023/06/14 00:41:38;;;;;;;7.00;4.53;;;;;;;16.17;100.00;92797.47;5105835;28;20149;-74
2023/06/14 00:44:06;;;;;;;6.80;4.28;;;;;;;16.16;100.00;92794.09;5107318;28;20088;-74
2023/06/14 00:46:32;;;;;;;8.45;5.35;;;;;;;16.15;100.00;92789.16;5107422;28;20039;-73
2023/06/14 00:49:01;;;;;;;7.45;4.68;;;;;;;16.14;100.00;92787.59;5107288;28;20048;-73
2023/06/14 00:51:28;;;;;;;7.22;4.35;;;;;;;16.12;100.00;92789.66;5106686;28;20052;-73
2023/06/14 00:53:54;;;;;;;7.68;4.63;;;;;;;16.13;100.00;92791.22;5107420;28;20039;-73
2023/06/14 00:56:23;;;;;;;8.35;5.47;;;;;;;16.11;100.00;92791.47;5093039;28;20047;-73
2023/06/14 00:58:50;;;;;;;8.35;4.57;;;;;;;16.08;100.00;92788.63;5102052;28;20120;-73
2023/06/14 01:01:17;;;;;;;11.88;4.97;;;;;;;16.10;100.00;92786.56;5099095;28;20539;-73
2023/06/14 01:03:44;;;;;;;8.57;5.05;;;;;;;16.09;100.00;92783.19;5107223;28;20040;-72
2023/06/14 01:06:29;;;;;;;8.15;4.93;;;;;;;16.09;100.00;92778.00;5107185;28;20052;-73
2023/06/14 01:09:08;;;;;;;9.63;5.78;;;;;;;16.08;100.00;92775.66;5111157;28;20052;-73
2023/06/14 01:11:42;;;;;;;7.80;4.60;;;;;;;16.10;100.00;92778.78;5111005;28;20054;-73
2023/06/14 01:14:13;;;;;;;10.88;4.55;;;;;;;16.06;100.00;92772.56;5110955;28;20537;-73
2023/06/14 01:16:40;;;;;;;14.20;5.47;;;;;;;16.06;100.00;92768.13;5085721;28;20112;-73
2023/06/14 01:19:12;;;;;;;8.30;4.88;;;;;;;16.07;100.00;92771.50;5110879;28;20564;-73
2023/06/14 01:21:41;;;;;;;10.50;5.43;;;;;;;16.08;100.00;92770.47;5110748;28;20530;-73
2023/06/14 01:24:10;;;;;;;8.35;5.13;;;;;;;16.01;100.00;92765.53;5111051;27;20052;-73
2023/06/14 01:26:41;;;;;;;9.95;6.05;;;;;;;16.07;100.00;92768.94;5111290;28;20048;-73
2023/06/14 01:29:08;;;;;;;9.05;5.75;;;;;;;16.03;100.00;92766.84;5111110;27;20798;-73
2023/06/14 01:31:41;;;;;;;13.32;5.35;;;;;;;15.96;100.00;92750.00;5107914;28;20046;-73
2023/06/14 01:34:09;;;;;;;10.60;5.75;;;;;;;16.00;100.00;92763.97;5110588;28;20053;-73
2023/06/14 01:36:38;;;;;;;9.30;5.22;;;;;;;16.00;100.00;92769.94;5083390;28;20047;-73
2023/06/14 01:39:06;;;;;;;8.02;5.50;;;;;;;15.99;100.00;92763.22;5110089;28;20076;-73
2023/06/14 01:41:35;;;;;;;10.40;5.68;;;;;;;15.99;100.00;92781.34;5099769;28;20051;-73
2023/06/14 01:44:03;;;;;;;8.35;5.05;;;;;;;15.99;100.00;92780.56;5110666;28;20747;-73
2023/06/14 01:46:29;;;;;;;11.25;4.88;;;;;;;15.93;100.00;92761.63;5110249;28;20100;-73
2023/06/14 01:48:56;;;;;;;7.57;4.35;;;;;;;15.97;100.00;92780.81;5110354;28;20051;-74
2023/06/14 01:51:23;;;;;;;8.45;5.60;;;;;;;15.95;100.00;92772.50;5110310;28;20454;-73
2023/06/14 01:53:50;;;;;;;9.40;5.30;;;;;;;15.85;100.00;92783.59;5108586;28;20047;-72
2023/06/14 01:56:17;;;;;;;9.40;5.57;;;;;;;15.63;100.00;92779.34;5109845;28;20546;-72
2023/06/14 01:58:45;;;;;;;9.30;5.07;;;;;;;15.47;100.00;92780.28;5110419;28;20066;-72
2023/06/14 02:01:12;;;;;;;8.35;5.10;;;;;;;15.45;100.00;92777.16;5110328;28;20048;-73
2023/06/14 02:03:39;;;;;;;8.82;5.55;;;;;;;15.38;100.00;92784.38;5109998;27;20159;-72
2023/06/14 02:06:06;;;;;;;14.95;7.47;;;;;;;15.20;100.00;92786.34;5110478;28;20059;-72
2023/06/14 02:08:32;;;;;;;12.27;6.50;;;;;;;15.29;100.00;92786.66;5110383;28;20044;-72
2023/06/14 02:10:59;;;;;;;9.60;5.70;;;;;;;15.29;100.00;92787.44;5109648;28;20845;-72
2023/06/14 02:13:26;;;;;;;11.70;6.10;;;;;;;15.29;100.00;92792.63;5110041;28;20422;-72
2023/06/14 02:15:54;;;;;;;14.50;7.22;;;;;;;15.29;100.00;92797.00;5109387;27;20097;-72
2023/06/14 02:18:22;;;;;;;11.70;6.45;;;;;;;15.31;100.00;92803.47;5109856;28;20097;-73
2023/06/14 02:20:48;;;;;;;11.23;6.07;;;;;;;15.33;100.00;92804.00;5109557;28;20040;-73
2023/06/14 02:23:15;;;;;;;10.60;5.38;;;;;;;15.41;100.00;92797.59;5109819;28;20576;-72
2023/06/14 02:25:44;;;;;;;11.80;6.68;;;;;;;15.48;100.00;92795.56;5109092;28;20039;-73
2023/06/14 02:28:11;;;;;;;12.30;7.50;;;;;;;15.35;100.00;92763.16;5109997;28;20048;-73
2023/06/14 02:30:38;;;;;;;13.10;6.57;;;;;;;15.68;100.00;92809.66;5109512;28;20100;-73
2023/06/14 02:33:06;;;;;;;13.80;7.45;;;;;;;15.70;100.00;92793.88;5098077;28;20054;-73
2023/06/14 02:35:33;;;;;;;10.95;6.35;;;;;;;15.76;100.00;92801.44;5107565;28;20575;-73
2023/06/14 02:38:00;;;;;;;11.98;6.38;;;;;;;15.82;100.00;92802.22;5109972;28;20097;-73
2023/06/14 02:40:27;;;;;;;12.52;6.65;;;;;;;15.82;100.00;92809.19;5109485;28;20131;-73
2023/06/14 02:42:53;;;;;;;12.13;6.50;;;;;;;15.85;100.00;92804.31;5107090;28;20092;-73
2023/06/14 02:45:20;;;;;;;10.73;6.15;;;;;;;15.65;100.00;92765.38;5109581;28;20080;-73
2023/06/14 02:47:47;;;;;;;11.98;6.65;;;;;;;15.95;100.00;92806.19;5109249;28;20579;-73
2023/06/14 02:50:15;;;;;;;11.85;6.75;;;;;;;15.94;100.00;92803.84;5109457;27;20056;-73
2023/06/14 02:52:44;;;;;;;11.25;5.97;;;;;;;15.99;100.00;92801.28;5109451;28;20055;-72
2023/06/14 02:55:11;;;;;;;15.90;7.28;;;;;;;16.02;100.00;92803.38;5109203;28;20147;-73
2023/06/14 02:57:38;;;;;;;10.68;5.45;;;;;;;16.02;100.00;92808.56;5109665;28;20047;-73
2023/06/14 03:00:09;;;;;;;11.15;6.00;;;;;;;16.03;100.00;92804.94;5108514;28;20043;-73
2023/06/14 03:02:36;;;;;;;11.48;5.85;;;;;;;16.05;100.00;92808.03;5108725;28;20054;-73
2023/06/14 03:05:03;;;;;;;11.75;5.95;;;;;;;16.06;100.00;92806.22;5108914;27;20054;-73
2023/06/14 03:07:31;;;;;;;10.23;6.22;;;;;;;16.08;100.00;92807.53;5105798;27;20048;-73
2023/06/14 03:09:58;;;;;;;8.57;5.43;;;;;;;16.04;100.00;92803.88;5108439;28;20043;-73
2023/06/14 03:12:25;;;;;;;10.13;5.30;;;;;;;16.08;100.00;92824.88;5108371;28;20757;-74
2023/06/14 03:14:51;;;;;;;10.15;5.93;;;;;;;16.10;100.00;92821.00;5108435;28;20040;-73
2023/06/14 03:17:19;;;;;;;11.45;4.90;;;;;;;16.11;100.00;92824.38;5108590;28;20043;-73
2023/06/14 03:19:46;;;;;;;12.73;6.50;;;;;;;16.13;100.00;92822.31;5108688;28;20553;-73
2023/06/14 03:22:12;;;;;;;10.20;6.03;;;;;;;16.14;100.00;92822.06;5109001;28;20104;-73
2023/06/14 03:24:41;;;;;;;12.93;6.53;;;;;;;16.18;100.00;92824.94;5107969;28;20867;-73
2023/06/14 03:27:09;;;;;;;11.85;6.32;;;;;;;16.22;100.00;92828.56;5108993;28;20052;-73
2023/06/14 03:29:36;;;;;;;10.52;5.75;;;;;;;16.24;100.00;92825.75;5108107;28;20047;-73
2023/06/14 03:32:04;;;;;;;12.30;6.80;;;;;;;16.27;100.00;92833.78;5106923;28;20044;-73
2023/06/14 03:34:31;;;;;;;15.63;6.68;;;;;;;16.30;100.00;92843.63;5108292;28;20045;-73
2023/06/14 03:36:58;;;;;;;11.48;6.40;;;;;;;16.28;100.00;92834.53;5108668;28;20048;-73
2023/06/14 03:39:24;;;;;;;12.50;5.57;;;;;;;16.27;100.00;92838.16;5081181;28;20039;-72
2023/06/14 03:41:52;;;;;;;10.93;6.10;;;;;;;16.30;100.00;92851.41;5107626;28;20039;-72
2023/06/14 03:44:19;;;;;;;10.05;6.03;;;;;;;16.27;100.00;92830.41;5099014;28;20085;-72
2023/06/14 03:46:46;;;;;;;9.63;4.88;;;;;;;16.35;100.00;92834.31;5091004;28;20043;-72
2023/06/14 03:49:13;;;;;;;10.20;5.20;;;;;;;16.42;100.00;92845.22;5108509;28;20048;-73
2023/06/14 03:51:40;;;;;;;11.57;6.25;;;;;;;16.45;100.00;92839.53;5091145;28;20092;-73
2023/06/14 03:54:07;;;;;;;13.25;5.40;;;;;;;16.26;100.00;92821.06;5088159;28;20109;-73
2023/06/14 03:56:34;;;;;;;9.80;5.53;;;;;;;16.48;100.00;92846.78;5087904;28;20147;-73
2023/06/14 03:59:03;;;;;;;10.40;5.85;;;;;;;16.50;100.00;92844.72;5087961;28;20055;-73
2023/06/14 04:01:31;;;;;;;9.35;5.72;;;;;;;16.56;100.00;92848.09;5087814;28;20040;-72
2023/06/14 04:03:58;;;;;;;8.73;5.45;;;;;;;16.59;100.00;92855.38;5087610;28;20047;-72
2023/06/14 04:06:32;;;;;;;11.32;5.72;;;;;;;16.55;100.00;92844.75;5087705;28;20048;-72
2023/06/14 04:09:02;;;;;;;10.55;5.45;;;;;;;16.65;100.00;92856.16;5087931;28;20050;-73
2023/06/14 04:11:29;;;;;;;9.85;5.85;;;;;;;16.65;100.00;92846.56;5087587;28;20051;-73
2023/06/14 04:13:56;;;;;;;10.68;5.70;;;;;;;16.70;100.00;92846.59;5087283;28;20081;-72
2023/06/14 04:16:24;;;;;;;9.45;6.03;;;;;;;16.70;100.00;92840.63;5087680;28;20048;-73
2023/06/14 04:18:52;;;;;;;11.88;6.05;;;;;;;16.77;100.00;92846.34;5087859;28;20127;-73
2023/06/14 04:21:19;;;;;;;8.38;5.72;;;;;;;16.58;100.00;92808.97;5088009;28;20054;-73
2023/06/14 04:23:45;;;;;;;11.60;5.45;;;;;;;16.78;100.00;92836.75;5088067;28;20138;-73
2023/06/14 04:26:12;;;;;;;11.75;6.13;;;;;;;16.85;100.00;92839.84;5087122;28;20479;-73
2023/06/14 04:28:40;;;;;;;9.20;5.70;;;;;;;16.91;100.00;92844.03;5087337;28;20044;-73
2023/06/14 04:31:08;;;;;;;9.70;6.28;;;;;;;17.01;100.00;92852.84;5087764;28;20050;-73
2023/06/14 04:33:43;;;;;;;10.45;6.57;;;;;;;17.03;100.00;92837.84;5087427;28;20048;-73
2023/06/14 04:36:11;;;;;;;9.43;5.78;;;;;;;17.06;100.00;92837.31;5087680;28;20055;-73
2023/06/14 04:38:38;;;;;;;7.97;5.18;;;;;;;17.21;100.00;92850.31;5087313;28;20040;-73
2023/06/14 04:41:05;;;;;;;7.80;4.38;;;;;;;17.29;100.00;92851.59;5087168;28;20048;-73
2023/06/14 04:43:37;;;;;;;7.72;4.75;;;;;;;17.40;100.00;92851.59;5102302;28;20455;-73
2023/06/14 04:46:05;;;;;;;7.90;4.82;;;;;;;17.47;100.00;92855.50;5107777;28;20451;-72
2023/06/14 04:48:32;;;;;;;6.57;4.00;;;;;;;17.56;100.00;92853.16;5104197;28;20143;-72
2023/06/14 04:51:00;;;;;;;9.43;5.35;;;;;;;17.63;100.00;92860.66;5087632;28;20140;-72
2023/06/14 04:53:28;;;;;;;7.28;4.93;;;;;;;17.70;100.00;92865.59;5087398;28;20036;-72
2023/06/14 04:55:55;;;;;;;7.05;4.28;;;;;;;17.75;100.00;92871.56;5087217;28;20043;-72
2023/06/14 04:58:22;;;;;;;7.82;4.75;;;;;;;17.68;100.00;92862.47;5086902;28;20416;-72
2023/06/14 05:00:49;;;;;;;8.70;5.40;;;;;;;17.85;100.00;92873.34;5087024;28;20089;-73
2023/06/14 05:03:18;;;;;;;7.80;4.80;;;;;;;17.93;100.00;92879.84;5087314;28;20048;-71
2023/06/14 05:05:45;;;;;;;10.07;5.47;;;;;;;17.98;100.00;92877.22;5087274;28;20048;-73
2023/06/14 05:08:13;;;;;;;8.18;4.97;;;;;;;18.05;100.00;92889.16;5087347;28;20055;-73
2023/06/14 05:10:40;;;;;;;9.25;5.63;;;;;;;18.02;100.00;92880.06;5087007;28;20947;-73
2023/06/14 05:13:07;;;;;;;7.55;4.40;;;;;;;17.96;100.00;92905.28;5086708;28;20052;-73
2023/06/14 05:15:33;;;;;;;7.88;4.63;;;;;;;18.00;100.00;92901.13;5087337;28;20104;-73
2023/06/14 05:18:00;;;;;;;8.70;4.97;;;;;;;18.01;100.00;92900.09;5102822;28;20052;-73
2023/06/14 05:20:27;;;;;;;7.28;5.13;;;;;;;18.05;100.00;92905.53;5107389;28;20089;-73
2023/06/14 05:22:54;;;;;;;6.53;3.97;;;;;;;18.05;100.00;92905.53;5107285;28;20529;-73
2023/06/14 05:25:23;;;;;;;8.30;5.20;;;;;;;18.12;100.00;92905.28;5107806;28;20044;-73
2023/06/14 05:27:50;;;;;;;7.00;4.53;;;;;;;18.16;100.00;92911.53;5107002;28;20909;-73
2023/06/14 05:30:17;;;;;;;7.20;4.82;;;;;;;18.11;100.00;92908.94;5107151;28;20048;-73
2023/06/14 05:32:44;;;;;;;7.53;4.40;;;;;;;18.10;100.00;92915.94;5107375;28;20039;-73
2023/06/14 05:35:11;;;;;;;8.57;5.22;;;;;;;18.15;100.00;92920.38;5107275;28;20101;-73
2023/06/14 05:37:38;;;;;;;8.40;5.47;;;;;;;18.04;100.00;92919.56;5107277;28;20394;-73
2023/06/14 05:40:06;;;;;;;10.15;5.28;;;;;;;18.10;100.00;92922.97;5107254;28;20055;-73
2023/06/14 05:42:34;;;;;;;6.43;4.95;;;;;;;18.04;100.00;92922.16;5106759;28;20048;-73
2023/06/14 05:45:01;;;;;;;8.60;5.38;;;;;;;18.03;100.00;92916.22;5106925;28;20112;-73
2023/06/14 05:47:28;;;;;;;11.57;5.15;;;;;;;18.02;100.00;92919.81;5099736;28;20113;-73
2023/06/14 05:49:55;;;;;;;8.38;4.97;;;;;;;18.06;100.00;92927.94;5101166;28;20056;-73
2023/06/14 05:52:22;;;;;;;9.88;5.30;;;;;;;18.06;100.00;92927.94;5107271;28;20043;-73
2023/06/14 05:54:49;;;;;;;9.40;6.38;;;;;;;18.00;100.00;92934.13;5108136;28;20462;-73
2023/06/14 05:57:16;;;;;;;10.60;5.60;;;;;;;18.05;100.00;92939.31;5110436;27;20050;-72
2023/06/14 05:59:44;;;;;;;17.35;6.70;;;;;;;17.81;100.00;92936.50;5096879;28;20052;-73
2023/06/14 06:02:11;;;;;;;13.50;5.43;;;;;;;17.67;100.00;92936.25;5110511;27;20043;-73
2023/06/14 06:04:38;;;;;;;13.63;7.70;;;;;;;17.63;100.00;92931.56;5110039;28;20530;-73
2023/06/14 06:07:05;;;;;;;11.13;6.68;;;;;;;17.56;100.00;92933.66;5110372;27;20036;-73
2023/06/14 06:09:32;;;;;;;10.35;7.05;;;;;;;17.86;100.00;92926.09;5110316;28;20043;-73
2023/06/14 06:11:58;;;;;;;12.05;7.28;;;;;;;17.81;100.00;92924.28;5109989;28;20052;-73
2023/06/14 06:14:25;;;;;;;12.15;6.85;;;;;;;17.86;100.00;92937.25;5096239;28;20069;-72
2023/06/14 06:16:54;;;;;;;8.15;5.88;;;;;;;17.98;100.00;92944.00;5110400;28;20044;-72
2023/06/14 06:19:21;;;;;;;9.93;5.97;;;;;;;18.25;100.00;92922.94;5109464;28;20048;-72
2023/06/14 06:21:48;;;;;;;9.07;6.03;;;;;;;18.70;100.00;92943.84;5110166;28;20048;-72
2023/06/14 06:24:15;;;;;;;9.88;6.32;;;;;;;19.15;100.00;92939.75;5109428;28;20048;-72
2023/06/14 06:26:41;;;;;;;11.25;6.90;;;;;;;19.38;100.00;92942.75;5109296;28;20048;-72
2023/06/14 06:29:08;;;;;;;11.40;6.22;;;;;;;19.63;100.00;92954.81;5104485;28;20047;-72
2023/06/14 06:31:35;;;;;;;10.30;6.00;;;;;;;19.77;100.00;92947.91;5109354;28;20051;-72
2023/06/14 06:34:03;;;;;;;10.70;6.40;;;;;;;20.00;100.00;92950.09;5109557;27;20218;-72
2023/06/14 06:36:30;;;;;;;10.32;6.22;;;;;;;19.85;100.00;92951.75;5109955;28;20051;-72
2023/06/14 06:38:57;;;;;;;10.00;5.60;;;;;;;19.44;100.00;92954.69;5108832;28;20044;-72
2023/06/14 06:41:23;;;;;;;8.02;5.35;;;;;;;19.64;100.00;92951.16;5109453;28;20047;-72
2023/06/14 06:43:50;;;;;;;9.20;5.55;;;;;;;19.82;100.00;92948.94;5109184;28;20493;-72
2023/06/14 06:46:18;;;;;;;7.63;5.47;;;;;;;19.90;100.00;92946.50;5109673;27;20044;-72
2023/06/14 06:48:44;;;;;;;11.02;6.72;;;;;;;20.24;100.00;92954.56;5095984;28;20097;-72
2023/06/14 06:51:13;;;;;;;9.80;5.72;;;;;;;20.63;100.00;92943.19;5109605;28;20084;-72
2023/06/14 06:53:40;;;;;;;8.55;5.40;;;;;;;21.14;100.00;92954.09;5108837;28;20390;-72
2023/06/14 06:56:07;;;;;;;8.57;5.28;;;;;;;21.39;100.00;92957.41;5109378;28;20050;-72
2023/06/14 06:58:33;;;;;;;8.98;5.47;;;;;;;21.70;100.00;92967.44;5109112;28;20493;-72
2023/06/14 07:01:00;;;;;;;9.57;5.97;;;;;;;22.03;100.00;92964.81;5109566;28;20101;-72
2023/06/14 07:03:27;;;;;;;11.20;5.30;;;;;;;22.38;100.00;92972.34;5109066;28;20050;-72
2023/06/14 07:05:54;;;;;;;8.63;4.88;;;;;;;22.41;100.00;92963.88;5108930;28;20047;-72
2023/06/14 07:08:22;;;;;;;7.57;4.97;;;;;;;22.53;100.00;92963.44;5108421;28;20123;-72
2023/06/14 07:10:48;;;;;;;8.13;5.05;;;;;;;22.78;100.00;92956.16;5108838;28;20108;-72
2023/06/14 07:13:16;;;;;;;8.20;5.70;;;;;;;22.93;99.64;92962.16;5109198;28;20467;-72
2023/06/14 07:15:42;;;;;;;8.02;4.95;;;;;;;23.18;100.00;92957.47;5108898;28;20082;-72
2023/06/14 07:18:09;;;;;;;9.43;4.85;;;;;;;23.35;98.00;92962.13;5109029;28;20051;-72
2023/06/14 07:20:38;;;;;;;7.60;4.97;;;;;;;23.58;97.85;92962.13;5108892;28;20043;-72
2023/06/14 07:23:05;;;;;;;7.10;4.82;;;;;;;23.88;95.34;92963.25;5108510;28;20043;-72
2023/06/14 07:25:33;;;;;;;7.20;4.55;;;;;;;24.07;90.79;92966.78;5108395;28;20043;-72
2023/06/14 07:28:00;;;;;;;8.38;4.85;;;;;;;24.06;95.34;92958.13;5108434;28;20925;-72
2023/06/14 07:30:26;;;;;;;7.80;4.72;;;;;;;24.06;89.48;92957.34;5108048;27;20619;-72
2023/06/14 07:32:54;;;;;;;7.57;4.50;;;;;;;24.38;86.31;92952.88;5108334;27;20512;-72
2023/06/14 07:35:20;;;;;;;7.55;4.75;;;;;;;24.46;92.15;92933.00;5108524;28;20050;-72
2023/06/14 07:37:47;;;;;;;8.52;4.63;;;;;;;24.32;86.18;92947.00;5108234;28;20044;-72
2023/06/14 07:40:14;;;;;;;8.35;4.93;;;;;;;24.17;85.97;92945.56;5107798;28;20051;-72
2023/06/14 07:42:43;;;;;;;6.55;4.22;;;;;;;24.40;93.35;92938.38;5107816;28;20044;-72
2023/06/14 07:45:10;;;;;;;7.63;5.28;;;;;;;24.85;91.72;92951.69;5108429;28;20046;-73
2023/06/14 07:47:37;;;;;;;7.40;4.80;;;;;;;25.15;91.89;92952.66;5108545;28;20047;-72
2023/06/14 07:50:04;;;;;;;5.75;4.07;;;;;;;25.33;89.21;92952.69;5108149;28;20108;-72
2023/06/14 07:52:31;;;;;;;6.28;4.00;;;;;;;25.19;81.03;92965.97;5108129;28;20051;-73
2023/06/14 07:54:57;;;;;;;5.45;3.55;;;;;;;25.18;77.70;92977.56;5107710;28;20511;-72
2023/06/14 07:57:25;;;;;;;6.70;3.40;;;;;;;25.31;80.45;92957.44;5108173;27;20039;-72
2023/06/14 07:59:53;;;;;;;6.68;4.32;;;;;;;25.18;84.54;92959.16;5107937;28;20044;-73
2023/06/14 08:02:19;;;;;;;7.22;4.40;;;;;;;24.56;82.81;92958.97;5107811;28;20499;-73
2023/06/14 08:04:46;;;;;;;7.55;4.22;;;;;;;23.96;86.89;92966.22;5107862;28;20044;-73
2023/06/14 08:07:13;;;;;;;9.05;5.60;;;;;;;23.58;91.68;92964.75;5107321;28;20138;-72
2023/06/14 08:09:40;;;;;;;6.00;3.63;;;;;;;23.66;87.77;92969.31;5107995;28;20052;-73
2023/06/14 08:12:09;;;;;;;7.20;3.67;;;;;;;23.75;87.23;92971.97;5107578;28;20054;-72
2023/06/14 08:14:36;;;;;;;5.30;3.70;;;;;;;24.03;93.47;92972.59;5107663;28;20135;-72
2023/06/14 08:17:05;;;;;;;6.38;4.20;;;;;;;24.15;87.80;92973.94;5107326;28;20043;-73
2023/06/14 08:19:31;;;;;;;5.70;3.47;;;;;;;24.24;87.79;92971.34;5108110;28;20093;-72
2023/06/14 08:21:58;;;;;;;9.45;3.65;;;;;;;24.27;88.42;92983.88;5093540;28;20421;-72
2023/06/14 08:24:26;;;;;;;6.53;4.47;;;;;;;24.32;89.78;92973.25;5107862;28;20043;-72
2023/06/14 08:26:53;;;;;;;6.63;3.63;;;;;;;24.53;88.15;92978.00;5107821;28;20048;-72
2023/06/14 08:29:20;;;;;;;6.50;4.38;;;;;;;24.49;86.40;92980.41;5107491;28;20120;-72
2023/06/14 08:31:48;;;;;;;6.50;4.43;;;;;;;24.44;88.71;92983.19;5107277;28;20048;-73
2023/06/14 08:34:16;;;;;;;7.60;4.40;;;;;;;24.37;91.58;92977.59;5105162;28;20043;-73
2023/06/14 08:36:43;;;;;;;10.55;4.57;;;;;;;24.53;88.93;92976.13;5106913;28;20550;-73
2023/06/14 08:39:10;;;;;;;7.47;4.47;;;;;;;24.66;87.76;92977.09;5093623;28;20094;-72
2023/06/14 08:41:37;;;;;;;5.78;3.65;;;;;;;24.38;82.71;92943.16;5107433;28;20048;-72
2023/06/14 08:44:04;;;;;;;7.00;4.30;;;;;;;24.16;84.11;92975.47;5106772;28;20501;-72
2023/06/14 08:46:33;;;;;;;5.45;3.50;;;;;;;24.10;84.04;92959.09;5107467;28;20055;-72
2023/06/14 08:49:02;;;;;;;6.68;4.03;;;;;;;24.21;84.86;92953.59;5107223;28;20512;-72
2023/06/14 08:51:34;;;;;;;5.97;3.80;;;;;;;23.53;86.44;92973.53;5106814;28;20104;-72
2023/06/14 08:54:01;;;;;;;6.55;4.45;;;;;;;23.69;89.33;92966.06;5107234;28;20412;-73
2023/06/14 08:56:29;;;;;;;6.43;3.55;;;;;;;23.70;85.16;92980.72;5107089;28;20054;-73
2023/06/14 08:58:57;;;;;;;5.30;3.97;;;;;;;23.98;86.35;92975.34;5107287;28;20530;-72
2023/06/14 09:01:24;;;;;;;13.52;4.28;;;;;;;24.64;91.77;92971.38;5107328;28;20097;-72
2023/06/14 09:03:51;;;;;;;5.97;3.88;;;;;;;25.15;85.73;92967.66;5106748;28;20040;-73
2023/06/14 09:06:18;;;;;;;5.93;3.42;;;;;;;25.46;82.38;92935.97;5106714;28;20043;-72
2023/06/14 09:08:48;;;;;;;4.68;2.88;;;;;;;26.18;80.84;92960.34;5107561;28;20047;-72
2023/06/14 09:11:18;;;;;;;6.72;3.13;;;;;;;26.63;76.02;92949.38;5107047;28;20048;-73
2023/06/14 09:13:45;;;;;;;6.47;3.15;;;;;;;26.89;74.89;92955.59;5107150;28;20051;-73
2023/06/14 09:16:13;;;;;;;4.85;2.85;;;;;;;27.17;74.06;92940.09;5107104;28;20039;-73
2023/06/14 09:18:43;;;;;;;3.75;2.38;;;;;;;26.45;64.94;92946.03;5106784;28;20051;-73
2023/06/14 09:21:11;;;;;;;7.05;3.05;;;;;;;26.92;70.19;92942.59;5107522;28;20104;-73
2023/06/14 09:23:38;;;;;;;5.88;2.70;;;;;;;27.17;64.33;92952.50;5107263;28;20058;-73
2023/06/14 09:26:11;;;;;;;4.65;3.03;;;;;;;27.44;71.04;92943.31;5106902;28;20051;-74
2023/06/14 09:28:42;;;;;;;3.75;2.42;;;;;;;27.40;63.38;92942.41;5107335;28;20052;-74
2023/06/14 09:31:11;;;;;;;5.20;2.90;;;;;;;27.54;70.36;92936.84;5111252;28;20430;-73
2023/06/14 09:33:38;;;;;;;6.22;2.80;;;;;;;27.92;67.30;92937.03;5107273;28;20040;-74
2023/06/14 09:36:05;;;;;;;5.60;3.13;;;;;;;28.11;71.55;92934.66;5110934;28;20160;-74
2023/06/14 09:38:31;;;;;;;4.82;3.17;;;;;;;28.08;64.31;92940.59;5110880;28;20093;-73
2023/06/14 09:40:59;;;;;;;5.57;3.30;;;;;;;28.24;62.50;92939.97;5109994;28;20566;-73
2023/06/14 09:43:28;;;;;;;5.32;3.55;;;;;;;27.63;61.98;92934.16;5110952;28;20089;-74
2023/06/14 09:45:55;;;;;;;7.72;3.40;;;;;;;27.93;66.34;92917.44;5103056;28;20040;-73
2023/06/14 09:48:22;;;;;;;4.82;3.25;;;;;;;28.21;64.44;92941.38;5104707;28;20492;-73
2023/06/14 09:50:51;;;;;;;4.60;3.17;;;;;;;28.05;63.88;92906.91;5099469;28;20096;-74
2023/06/14 09:53:22;;;;;;;9.18;3.63;;;;;;;27.14;65.06;92934.69;5110034;28;20040;-74
2023/06/14 09:55:50;;;;;;;5.40;2.97;;;;;;;27.54;63.66;92928.19;5110761;28;20404;-74
2023/06/14 09:58:19;;;;;;;6.03;3.33;;;;;;;25.42;67.63;92934.28;5109428;28;20113;-74
2023/06/14 10:00:51;;;;;;;4.90;3.20;;;;;;;25.60;69.29;92927.19;5105599;28;20086;-73
2023/06/14 10:03:25;;;;;;;7.03;3.75;;;;;;;25.59;76.12;92901.97;5110411;28;20073;-74
2023/06/14 10:05:52;;;;;;;5.70;3.40;;;;;;;25.21;70.74;92914.63;5110527;28;20048;-74
2023/06/14 10:08:23;;;;;;;5.90;3.92;;;;;;;25.09;72.21;92912.63;5110328;28;20096;-73
2023/06/14 10:10:50;;;;;;;4.63;2.83;;;;;;;24.63;70.33;92911.28;5110038;28;20040;-73
2023/06/14 10:13:18;;;;;;;5.78;3.33;;;;;;;24.92;70.90;92908.13;5102924;28;20056;-74
2023/06/14 10:15:57;;;;;;;5.45;3.67;;;;;;;24.57;75.33;92894.88;5109336;28;20538;-73
2023/06/14 10:18:33;;;;;;;5.70;3.40;;;;;;;23.79;71.80;92903.97;5104040;28;20054;-74
2023/06/14 10:21:07;;;;;;;;;;;;;;;24.08;73.57;92900.13;5082038;28;20101;-73
2023/06/14 10:23:38;;;;;;;5.90;3.65;;;;;;;24.59;78.49;92895.38;5095065;28;19924;-73
2023/06/14 10:26:05;;;;;;;4.55;3.13;;;;;;;24.62;72.42;92897.38;5109714;28;20048;-74
2023/06/14 10:28:32;;;;;;;6.32;3.70;;;;;;;25.08;76.10;92889.25;5109572;28;20101;-73
2023/06/14 10:31:08;;;;;;;4.97;3.15;;;;;;;25.15;72.17;92888.81;5108934;28;20054;-73
2023/06/14 10:33:35;;;;;;;;;;;;;;;25.22;71.33;92891.75;5109887;28;20541;-73
2023/06/14 10:36:27;;;;;;;4.93;3.33;;;;;;;24.48;72.61;92891.47;5109297;28;20377;-74
2023/06/14 10:39:05;;;;;;;4.53;3.10;;;;;;;24.32;70.89;92885.84;5109541;28;20054;-73
2023/06/14 10:41:33;;;;;;;4.68;3.10;;;;;;;25.22;70.83;92882.00;5093539;28;20079;-73
2023/06/14 10:44:34;;;;;;;4.53;3.03;;;;;;;25.72;73.43;92877.34;5107836;28;20562;-73
2023/06/14 10:47:02;;;;;;;4.78;2.72;;;;;;;25.78;64.09;92883.19;5109250;28;20102;-73
2023/06/14 10:49:41;;;;;;;5.20;3.25;;;;;;;25.73;66.92;92873.63;5109513;28;20550;-73
2023/06/14 10:52:16;;;;;;;4.30;2.42;;;;;;;25.91;65.56;92870.19;5109445;28;20047;-73
2023/06/14 10:54:57;;;;;;;5.63;2.80;;;;;;;26.57;66.24;92866.34;5109193;27;20132;-73
2023/06/14 10:57:23;;;;;;;4.60;2.95;;;;;;;27.14;64.87;92866.16;5109046;28;20089;-74
2023/06/14 10:59:50;;;;;;;7.50;3.38;;;;;;;25.69;67.93;92870.06;5108696;28;20044;-73
2023/06/14 11:02:51;;;;;;;4.95;3.45;;;;;;;26.13;67.90;92856.00;5109543;28;20386;-73
2023/06/14 11:05:25;;;;;;;5.07;2.90;;;;;;;25.64;71.68;92851.81;5109136;28;20541;-73
2023/06/14 11:08:16;;;;;;;4.25;2.75;;;;;;;25.13;66.91;92836.56;5108946;28;20409;-73
2023/06/14 11:10:45;;;;;;;5.85;2.80;;;;;;;25.05;66.87;92853.88;5108736;28;20065;-73
2023/06/14 11:13:12;;;;;;;5.07;3.50;;;;;;;25.57;67.28;92856.78;5109105;28;20139;-73
2023/06/14 11:15:44;;;;;;;3.83;2.55;;;;;;;25.28;66.65;92858.19;5107733;28;20141;-73
2023/06/14 11:18:14;;;;;;;5.60;3.15;;;;;;;25.21;68.38;92848.94;5108867;28;20048;-73
2023/06/14 11:20:41;;;;;;;4.40;2.95;;;;;;;25.66;69.22;92849.66;5108643;28;20096;-73
2023/06/14 11:23:08;;;;;;;4.32;2.97;;;;;;;25.63;67.02;92855.53;5101110;28;20048;-72
2023/06/14 11:25:34;;;;;;;3.70;2.67;;;;;;;25.92;65.55;92855.94;5105901;28;20096;-73
2023/06/14 11:28:01;;;;;;;4.90;2.75;;;;;;;26.30;64.65;92852.56;5104018;28;20048;-73
2023/06/14 11:30:28;;;;;;;6.03;2.80;;;;;;;26.12;64.61;92855.25;5092031;28;20043;-72
2023/06/14 11:32:56;;;;;;;4.78;2.70;;;;;;;26.40;64.25;92817.97;5108779;28;20059;-73